sensor_id;sensor_type;location;lat;lon;timestamp;temperature;humidity
42145;DHT22;27813;43.516;11.890;2022-12-10T00:03:11;12.40;98.40
42145;DHT22;27813;43.516;11.890;2022-12-10T00:07:15;12.40;98.40
42145;DHT22;27813;43.516;11.890;2022-12-10T00:11:21;12.40;98.40
42145;DHT22;27813;43.516;11.890;2022-12-10T00:15:26;12.40;98.40
42145;DHT22;27813;43.516;11.890;2022-12-10T00:19:30;12.40;98.30
42145;DHT22;27813;43.516;11.890;2022-12-10T00:23:34;12.40;98.40
42145;DHT22;27813;43.516;11.890;2022-12-10T00:27:39;12.40;98.40
42145;DHT22;27813;43.516;11.890;2022-12-10T05:38:45;11.90;98.30
42145;DHT22;27813;43.516;11.890;2022-12-10T05:42:49;11.90;98.30
42145;DHT22;27813;43.516;11.890;2022-12-10T05:46:52;11.90;98.40
42145;DHT22;27813;43.516;11.890;2022-12-10T05:50:57;11.90;98.40
42145;DHT22;27813;43.516;11.890;2022-12-10T05:55:01;11.90;98.30
42145;DHT22;27813;43.516;11.890;2022-12-10T05:59:06;11.90;98.30
42145;DHT22;27813;43.516;11.890;2022-12-10T06:03:19;11.90;98.30
42145;DHT22;27813;43.516;11.890;2022-12-10T06:07:23;11.90;98.30
42145;DHT22;27813;43.516;11.890;2022-12-10T06:11:27;11.90;98.30
42145;DHT22;27813;43.516;11.890;2022-12-10T06:15:31;11.90;98.30
42145;DHT22;27813;43.516;11.890;2022-12-10T06:19:35;11.90;98.40
42145;DHT22;27813;43.516;11.890;2022-12-10T06:23:40;11.90;98.40
42145;DHT22;27813;43.516;11.890;2022-12-10T06:27:45;11.90;98.40
42145;DHT22;27813;43.516;11.890;2022-12-10T06:31:50;11.90;98.40
42145;DHT22;27813;43.516;11.890;2022-12-10T06:35:54;11.80;98.40
42145;DHT22;27813;43.516;11.890;2022-12-10T06:39:58;11.80;98.30
42145;DHT22;27813;43.516;11.890;2022-12-10T06:44:02;11.90;98.40
42145;DHT22;27813;43.516;11.890;2022-12-10T06:48:10;11.90;98.40
42145;DHT22;27813;43.516;11.890;2022-12-10T06:52:14;11.90;98.40
42145;DHT22;27813;43.516;11.890;2022-12-10T06:56:19;11.90;98.40
42145;DHT22;27813;43.516;11.890;2022-12-10T07:00:23;11.90;98.40
42145;DHT22;27813;43.516;11.890;2022-12-10T07:04:27;11.90;98.40
42145;DHT22;27813;43.516;11.890;2022-12-10T07:08:31;12.00;98.40
42145;DHT22;27813;43.516;11.890;2022-12-10T07:12:36;12.00;98.50
42145;DHT22;27813;43.516;11.890;2022-12-10T07:16:41;12.00;98.50
42145;DHT22;27813;43.516;11.890;2022-12-10T07:20:46;12.00;98.40
42145;DHT22;27813;43.516;11.890;2022-12-10T07:24:51;12.10;98.50
42145;DHT22;27813;43.516;11.890;2022-12-10T07:28:54;12.10;98.50
42145;DHT22;27813;43.516;11.890;2022-12-10T07:32:59;12.10;98.50
42145;DHT22;27813;43.516;11.890;2022-12-10T07:37:03;12.20;98.50
42145;DHT22;27813;43.516;11.890;2022-12-10T07:41:10;12.30;98.50
42145;DHT22;27813;43.516;11.890;2022-12-10T07:45:14;12.20;98.50
42145;DHT22;27813;43.516;11.890;2022-12-10T07:49:18;12.30;98.50
42145;DHT22;27813;43.516;11.890;2022-12-10T07:53:23;12.40;98.50
42145;DHT22;27813;43.516;11.890;2022-12-10T07:57:28;12.40;98.50
42145;DHT22;27813;43.516;11.890;2022-12-10T08:01:33;12.40;98.50
42145;DHT22;27813;43.516;11.890;2022-12-10T08:05:38;12.50;98.50
42145;DHT22;27813;43.516;11.890;2022-12-10T08:09:42;12.60;98.60
42145;DHT22;27813;43.516;11.890;2022-12-10T08:13:46;12.70;98.70
42145;DHT22;27813;43.516;11.890;2022-12-10T08:17:59;12.70;98.60
42145;DHT22;27813;43.516;11.890;2022-12-10T08:22:03;12.80;98.70
42145;DHT22;27813;43.516;11.890;2022-12-10T08:26:12;12.80;98.70
42145;DHT22;27813;43.516;11.890;2022-12-10T08:30:16;12.90;98.70
42145;DHT22;27813;43.516;11.890;2022-12-10T08:34:20;13.00;98.60
42145;DHT22;27813;43.516;11.890;2022-12-10T08:38:24;13.00;98.60
42145;DHT22;27813;43.516;11.890;2022-12-10T08:42:28;13.00;98.60
42145;DHT22;27813;43.516;11.890;2022-12-10T08:46:32;13.00;98.50
42145;DHT22;27813;43.516;11.890;2022-12-10T08:50:37;13.00;98.40
42145;DHT22;27813;43.516;11.890;2022-12-10T08:54:42;13.00;98.40
42145;DHT22;27813;43.516;11.890;2022-12-10T08:58:46;13.10;98.50
42145;DHT22;27813;43.516;11.890;2022-12-10T09:02:49;13.10;98.50
42145;DHT22;27813;43.516;11.890;2022-12-10T09:06:54;13.10;98.50
42145;DHT22;27813;43.516;11.890;2022-12-10T09:11:31;13.10;98.50
42145;DHT22;27813;43.516;11.890;2022-12-10T09:15:36;13.10;98.50
42145;DHT22;27813;43.516;11.890;2022-12-10T09:19:40;13.10;98.50
42145;DHT22;27813;43.516;11.890;2022-12-10T09:23:45;13.10;98.50
42145;DHT22;27813;43.516;11.890;2022-12-10T09:27:51;13.10;98.40
42145;DHT22;27813;43.516;11.890;2022-12-10T09:31:55;13.20;98.40
42145;DHT22;27813;43.516;11.890;2022-12-10T09:36:03;13.20;98.40
42145;DHT22;27813;43.516;11.890;2022-12-10T09:40:15;13.20;98.50
42145;DHT22;27813;43.516;11.890;2022-12-10T09:44:37;13.20;98.40
42145;DHT22;27813;43.516;11.890;2022-12-10T09:53:01;13.30;98.50
42145;DHT22;27813;43.516;11.890;2022-12-10T09:57:09;13.30;98.50
42145;DHT22;27813;43.516;11.890;2022-12-10T10:01:16;13.30;98.50
42145;DHT22;27813;43.516;11.890;2022-12-10T10:05:27;13.30;98.50
42145;DHT22;27813;43.516;11.890;2022-12-10T10:09:35;13.20;98.40
42145;DHT22;27813;43.516;11.890;2022-12-10T10:13:49;13.20;98.40
42145;DHT22;27813;43.516;11.890;2022-12-10T10:17:57;13.20;98.30
42145;DHT22;27813;43.516;11.890;2022-12-10T10:22:05;13.20;98.30
42145;DHT22;27813;43.516;11.890;2022-12-10T10:26:09;13.20;98.30
42145;DHT22;27813;43.516;11.890;2022-12-10T10:30:18;13.20;98.30
42145;DHT22;27813;43.516;11.890;2022-12-10T10:34:23;13.20;98.30
42145;DHT22;27813;43.516;11.890;2022-12-10T10:38:28;13.20;98.30
42145;DHT22;27813;43.516;11.890;2022-12-10T10:42:43;13.20;98.40
42145;DHT22;27813;43.516;11.890;2022-12-10T10:46:51;13.20;98.40
42145;DHT22;27813;43.516;11.890;2022-12-10T10:51:04;13.10;98.30
42145;DHT22;27813;43.516;11.890;2022-12-10T10:55:31;13.30;98.50
42145;DHT22;27813;43.516;11.890;2022-12-10T10:59:40;13.40;98.60
42145;DHT22;27813;43.516;11.890;2022-12-10T11:03:48;13.50;98.70
42145;DHT22;27813;43.516;11.890;2022-12-10T11:08:04;13.40;98.60
42145;DHT22;27813;43.516;11.890;2022-12-10T11:12:33;13.30;98.50
42145;DHT22;27813;43.516;11.890;2022-12-10T11:16:37;13.30;98.50
42145;DHT22;27813;43.516;11.890;2022-12-10T11:20:57;13.30;98.50
42145;DHT22;27813;43.516;11.890;2022-12-10T11:25:01;13.30;98.40
42145;DHT22;27813;43.516;11.890;2022-12-10T11:33:39;13.20;98.30
42145;DHT22;27813;43.516;11.890;2022-12-10T11:37:55;13.20;98.40
42145;DHT22;27813;43.516;11.890;2022-12-10T11:42:11;13.20;98.50
42145;DHT22;27813;43.516;11.890;2022-12-10T12:00:19;13.30;98.40
42145;DHT22;27813;43.516;11.890;2022-12-10T12:13:26;13.20;98.40
42145;DHT22;27813;43.516;11.890;2022-12-10T12:17:45;13.20;98.40
42145;DHT22;27813;43.516;11.890;2022-12-10T12:21:51;13.20;98.40
42145;DHT22;27813;43.516;11.890;2022-12-10T12:26:14;13.20;98.40
42145;DHT22;27813;43.516;11.890;2022-12-10T12:30:21;13.10;98.40
42145;DHT22;27813;43.516;11.890;2022-12-10T12:34:49;13.10;98.40
42145;DHT22;27813;43.516;11.890;2022-12-10T12:43:27;13.20;98.50
42145;DHT22;27813;43.516;11.890;2022-12-10T12:52:01;13.10;98.40
42145;DHT22;27813;43.516;11.890;2022-12-10T13:00:37;13.10;98.40
42145;DHT22;27813;43.516;11.890;2022-12-10T13:04:44;13.00;98.40
42145;DHT22;27813;43.516;11.890;2022-12-10T13:09:45;13.10;98.40
42145;DHT22;27813;43.516;11.890;2022-12-10T13:13:38;13.00;98.40
42145;DHT22;27813;43.516;11.890;2022-12-10T13:27:03;13.00;98.40
42145;DHT22;27813;43.516;11.890;2022-12-10T13:35:56;12.90;98.30
42145;DHT22;27813;43.516;11.890;2022-12-10T13:48:41;12.90;98.40
42145;DHT22;27813;43.516;11.890;2022-12-10T13:52:51;12.90;98.40
42145;DHT22;27813;43.516;11.890;2022-12-10T13:57:09;12.80;98.40
42145;DHT22;27813;43.516;11.890;2022-12-10T14:05:42;12.80;98.30
42145;DHT22;27813;43.516;11.890;2022-12-10T14:09:56;12.80;98.40
42145;DHT22;27813;43.516;11.890;2022-12-10T14:14:02;12.80;98.30
42145;DHT22;27813;43.516;11.890;2022-12-10T14:18:13;12.80;98.30
42145;DHT22;27813;43.516;11.890;2022-12-10T14:22:30;12.70;98.30
42145;DHT22;27813;43.516;11.890;2022-12-10T14:26:36;12.70;98.40
42145;DHT22;27813;43.516;11.890;2022-12-10T14:30:47;12.80;98.40
42145;DHT22;27813;43.516;11.890;2022-12-10T14:34:56;12.70;98.40
42145;DHT22;27813;43.516;11.890;2022-12-10T14:39:02;12.80;98.50
42145;DHT22;27813;43.516;11.890;2022-12-10T14:43:12;12.70;98.40
42145;DHT22;27813;43.516;11.890;2022-12-10T14:47:19;12.70;98.40
42145;DHT22;27813;43.516;11.890;2022-12-10T14:51:25;12.60;98.30
42145;DHT22;27813;43.516;11.890;2022-12-10T14:55:30;12.60;98.30
42145;DHT22;27813;43.516;11.890;2022-12-10T14:59:41;12.50;98.20
42145;DHT22;27813;43.516;11.890;2022-12-10T15:03:47;12.50;98.20
42145;DHT22;27813;43.516;11.890;2022-12-10T15:12:00;12.40;98.20
42145;DHT22;27813;43.516;11.890;2022-12-10T15:16:13;12.40;98.20
42145;DHT22;27813;43.516;11.890;2022-12-10T15:20:31;12.30;98.20
42145;DHT22;27813;43.516;11.890;2022-12-10T15:24:41;12.20;98.10
42145;DHT22;27813;43.516;11.890;2022-12-10T15:28:50;12.20;98.10
42145;DHT22;27813;43.516;11.890;2022-12-10T15:32:56;12.10;98.10
42145;DHT22;27813;43.516;11.890;2022-12-10T15:37:02;12.10;98.10
42145;DHT22;27813;43.516;11.890;2022-12-10T15:41:34;12.10;98.10
42145;DHT22;27813;43.516;11.890;2022-12-10T15:45:42;12.00;98.10
42145;DHT22;27813;43.516;11.890;2022-12-10T15:49:49;12.00;98.20
42145;DHT22;27813;43.516;11.890;2022-12-10T15:53:53;12.00;98.20
42145;DHT22;27813;43.516;11.890;2022-12-10T15:57:59;12.00;98.20
42145;DHT22;27813;43.516;11.890;2022-12-10T16:02:14;11.90;98.20
42145;DHT22;27813;43.516;11.890;2022-12-10T16:06:23;11.90;98.20
42145;DHT22;27813;43.516;11.890;2022-12-10T16:10:29;11.80;98.20
42145;DHT22;27813;43.516;11.890;2022-12-10T16:14:33;11.80;98.20
42145;DHT22;27813;43.516;11.890;2022-12-10T16:18:37;11.80;98.20
42145;DHT22;27813;43.516;11.890;2022-12-10T16:22:43;11.80;98.20
42145;DHT22;27813;43.516;11.890;2022-12-10T16:26:47;11.70;98.10
42145;DHT22;27813;43.516;11.890;2022-12-10T16:31:13;11.70;98.20
42145;DHT22;27813;43.516;11.890;2022-12-10T16:35:18;11.70;98.20
42145;DHT22;27813;43.516;11.890;2022-12-10T16:39:26;11.70;98.20
42145;DHT22;27813;43.516;11.890;2022-12-10T16:43:33;11.70;98.20
42145;DHT22;27813;43.516;11.890;2022-12-10T16:47:38;11.80;98.30
42145;DHT22;27813;43.516;11.890;2022-12-10T16:51:45;11.90;98.40
42145;DHT22;27813;43.516;11.890;2022-12-10T16:55:49;11.90;98.40
42145;DHT22;27813;43.516;11.890;2022-12-10T16:59:54;11.90;98.40
42145;DHT22;27813;43.516;11.890;2022-12-10T17:04:01;11.90;98.40
42145;DHT22;27813;43.516;11.890;2022-12-10T17:08:10;11.90;98.40
42145;DHT22;27813;43.516;11.890;2022-12-10T17:12:15;11.90;98.30
42145;DHT22;27813;43.516;11.890;2022-12-10T17:16:24;11.80;98.30
42145;DHT22;27813;43.516;11.890;2022-12-10T17:20:32;11.70;98.20
42145;DHT22;27813;43.516;11.890;2022-12-10T17:24:37;11.70;98.20
42145;DHT22;27813;43.516;11.890;2022-12-10T17:28:46;11.70;98.30
42145;DHT22;27813;43.516;11.890;2022-12-10T17:32:52;11.80;98.30
42145;DHT22;27813;43.516;11.890;2022-12-10T17:37:01;11.80;98.30
42145;DHT22;27813;43.516;11.890;2022-12-10T17:41:11;11.90;98.40
42145;DHT22;27813;43.516;11.890;2022-12-10T17:45:21;11.90;98.40
42145;DHT22;27813;43.516;11.890;2022-12-10T17:49:26;11.90;98.40
42145;DHT22;27813;43.516;11.890;2022-12-10T17:53:31;11.90;98.40
42145;DHT22;27813;43.516;11.890;2022-12-10T17:57:35;11.80;98.30
42145;DHT22;27813;43.516;11.890;2022-12-10T18:01:41;11.80;98.30
42145;DHT22;27813;43.516;11.890;2022-12-10T18:05:55;11.70;98.30
42145;DHT22;27813;43.516;11.890;2022-12-10T18:10:00;11.60;98.20
42145;DHT22;27813;43.516;11.890;2022-12-10T18:14:04;11.50;98.10
42145;DHT22;27813;43.516;11.890;2022-12-10T18:18:09;11.50;98.20
42145;DHT22;27813;43.516;11.890;2022-12-10T18:22:13;11.50;98.20
42145;DHT22;27813;43.516;11.890;2022-12-10T18:26:20;11.50;98.20
42145;DHT22;27813;43.516;11.890;2022-12-10T18:30:25;11.50;98.20
42145;DHT22;27813;43.516;11.890;2022-12-10T18:34:29;11.40;98.10
42145;DHT22;27813;43.516;11.890;2022-12-10T18:38:33;11.30;98.10
42145;DHT22;27813;43.516;11.890;2022-12-10T18:42:36;11.30;98.20
42145;DHT22;27813;43.516;11.890;2022-12-10T18:46:52;11.40;98.20
42145;DHT22;27813;43.516;11.890;2022-12-10T18:50:56;11.40;98.20
42145;DHT22;27813;43.516;11.890;2022-12-10T18:55:00;11.50;98.20
42145;DHT22;27813;43.516;11.890;2022-12-10T18:59:05;11.50;98.30
42145;DHT22;27813;43.516;11.890;2022-12-10T19:03:10;11.50;98.30
42145;DHT22;27813;43.516;11.890;2022-12-10T19:07:14;11.50;98.30
42145;DHT22;27813;43.516;11.890;2022-12-10T19:11:20;11.50;98.30
42145;DHT22;27813;43.516;11.890;2022-12-10T19:15:26;11.50;98.30
42145;DHT22;27813;43.516;11.890;2022-12-10T19:19:30;11.50;98.20
42145;DHT22;27813;43.516;11.890;2022-12-10T19:23:34;11.50;98.20
42145;DHT22;27813;43.516;11.890;2022-12-10T19:27:40;11.50;98.20
42145;DHT22;27813;43.516;11.890;2022-12-10T19:31:45;11.40;98.20
42145;DHT22;27813;43.516;11.890;2022-12-10T19:35:49;11.50;98.20
42145;DHT22;27813;43.516;11.890;2022-12-10T19:39:53;11.50;98.20
42145;DHT22;27813;43.516;11.890;2022-12-10T19:43:57;11.50;98.20
42145;DHT22;27813;43.516;11.890;2022-12-10T19:48:01;11.50;98.30
42145;DHT22;27813;43.516;11.890;2022-12-10T19:52:05;11.50;98.30
42145;DHT22;27813;43.516;11.890;2022-12-10T19:56:25;11.50;98.30
42145;DHT22;27813;43.516;11.890;2022-12-10T20:00:32;11.50;98.30
42145;DHT22;27813;43.516;11.890;2022-12-10T20:04:42;11.50;98.30
42145;DHT22;27813;43.516;11.890;2022-12-10T20:08:49;11.50;98.30
42145;DHT22;27813;43.516;11.890;2022-12-10T20:12:55;11.40;98.20
42145;DHT22;27813;43.516;11.890;2022-12-10T20:16:59;11.40;98.20
42145;DHT22;27813;43.516;11.890;2022-12-10T20:21:04;11.40;98.20
42145;DHT22;27813;43.516;11.890;2022-12-10T20:25:12;11.30;98.20
42145;DHT22;27813;43.516;11.890;2022-12-10T20:29:21;11.30;98.10
42145;DHT22;27813;43.516;11.890;2022-12-10T20:33:29;11.20;98.20
42145;DHT22;27813;43.516;11.890;2022-12-10T20:37:50;11.30;98.20
42145;DHT22;27813;43.516;11.890;2022-12-10T20:41:56;11.20;98.20
42145;DHT22;27813;43.516;11.890;2022-12-10T20:46:00;11.20;98.20
42145;DHT22;27813;43.516;11.890;2022-12-10T20:50:17;11.20;98.20
42145;DHT22;27813;43.516;11.890;2022-12-10T20:54:28;11.10;98.20
42145;DHT22;27813;43.516;11.890;2022-12-10T20:58:38;11.10;98.20
42145;DHT22;27813;43.516;11.890;2022-12-10T21:02:43;11.10;98.30
42145;DHT22;27813;43.516;11.890;2022-12-10T21:06:50;11.10;98.20
42145;DHT22;27813;43.516;11.890;2022-12-10T21:10:54;11.20;98.30
42145;DHT22;27813;43.516;11.890;2022-12-10T21:15:04;11.20;98.30
42145;DHT22;27813;43.516;11.890;2022-12-10T21:19:18;11.20;98.30
42145;DHT22;27813;43.516;11.890;2022-12-10T21:23:25;11.20;98.30
42145;DHT22;27813;43.516;11.890;2022-12-10T21:27:29;11.10;98.30
42145;DHT22;27813;43.516;11.890;2022-12-10T21:31:34;11.10;98.20
42145;DHT22;27813;43.516;11.890;2022-12-10T21:35:40;11.10;98.20
42145;DHT22;27813;43.516;11.890;2022-12-10T21:39:47;11.00;98.20
42145;DHT22;27813;43.516;11.890;2022-12-10T21:43:51;11.00;98.10
42145;DHT22;27813;43.516;11.890;2022-12-10T21:47:57;10.90;98.10
42145;DHT22;27813;43.516;11.890;2022-12-10T21:52:03;10.90;98.10
42145;DHT22;27813;43.516;11.890;2022-12-10T21:56:11;10.90;98.20
42145;DHT22;27813;43.516;11.890;2022-12-10T22:00:17;10.90;98.20
42145;DHT22;27813;43.516;11.890;2022-12-10T22:04:22;10.80;98.10
42145;DHT22;27813;43.516;11.890;2022-12-10T22:08:27;10.80;98.20
42145;DHT22;27813;43.516;11.890;2022-12-10T22:12:31;10.80;98.20
42145;DHT22;27813;43.516;11.890;2022-12-10T22:16:36;10.80;98.20
42145;DHT22;27813;43.516;11.890;2022-12-10T22:20:40;10.80;98.10
42145;DHT22;27813;43.516;11.890;2022-12-10T22:24:46;10.70;98.10
42145;DHT22;27813;43.516;11.890;2022-12-10T22:28:52;10.50;97.90
42145;DHT22;27813;43.516;11.890;2022-12-10T22:32:57;10.40;97.60
42145;DHT22;27813;43.516;11.890;2022-12-10T22:37:02;10.10;97.50
42145;DHT22;27813;43.516;11.890;2022-12-10T22:41:07;10.00;97.50
42145;DHT22;27813;43.516;11.890;2022-12-10T22:45:12;9.90;97.40
42145;DHT22;27813;43.516;11.890;2022-12-10T22:49:16;9.70;97.30
42145;DHT22;27813;43.516;11.890;2022-12-10T22:53:20;9.50;97.10
42145;DHT22;27813;43.516;11.890;2022-12-10T22:57:24;9.30;97.10
42145;DHT22;27813;43.516;11.890;2022-12-10T23:01:29;9.10;96.90
42145;DHT22;27813;43.516;11.890;2022-12-10T23:06:05;8.90;96.80
42145;DHT22;27813;43.516;11.890;2022-12-10T23:11:29;8.70;96.60
42145;DHT22;27813;43.516;11.890;2022-12-10T23:15:36;8.50;96.50
42145;DHT22;27813;43.516;11.890;2022-12-10T23:19:43;8.40;96.70
42145;DHT22;27813;43.516;11.890;2022-12-10T23:23:48;8.30;96.80
42145;DHT22;27813;43.516;11.890;2022-12-10T23:27:52;8.30;96.90
42145;DHT22;27813;43.516;11.890;2022-12-10T23:31:56;8.30;97.30
42145;DHT22;27813;43.516;11.890;2022-12-10T23:36:04;8.40;97.40
42145;DHT22;27813;43.516;11.890;2022-12-10T23:40:08;8.50;97.90
42145;DHT22;27813;43.516;11.890;2022-12-10T23:44:12;8.70;98.00
42145;DHT22;27813;43.516;11.890;2022-12-10T23:48:16;8.80;98.00
42145;DHT22;27813;43.516;11.890;2022-12-10T23:52:20;8.80;97.90
42145;DHT22;27813;43.516;11.890;2022-12-10T23:56:25;8.90;97.80
